sensor_id;sensor_type;location;lat;lon;timestamp;temperature;humidity
11093;DHT22;5600;50.864;6.102;2023-09-30T00:00:27;12.30;99.90
11093;DHT22;5600;50.864;6.102;2023-09-30T00:03:28;12.30;99.90
11093;DHT22;5600;50.864;6.102;2023-09-30T00:06:29;12.30;99.90
11093;DHT22;5600;50.864;6.102;2023-09-30T00:09:29;12.20;99.90
11093;DHT22;5600;50.864;6.102;2023-09-30T00:12:30;12.20;99.90
11093;DHT22;5600;50.864;6.102;2023-09-30T00:15:31;12.10;99.90
11093;DHT22;5600;50.864;6.102;2023-09-30T00:18:32;12.00;99.90
11093;DHT22;5600;50.864;6.102;2023-09-30T00:21:32;12.00;99.90
11093;DHT22;5600;50.864;6.102;2023-09-30T00:24:33;11.90;99.90
11093;DHT22;5600;50.864;6.102;2023-09-30T00:27:34;11.90;99.90
11093;DHT22;5600;50.864;6.102;2023-09-30T00:30:35;11.90;99.90
11093;DHT22;5600;50.864;6.102;2023-09-30T00:33:37;11.90;99.90
11093;DHT22;5600;50.864;6.102;2023-09-30T00:36:38;11.90;99.90
11093;DHT22;5600;50.864;6.102;2023-09-30T00:39:39;11.80;99.90
11093;DHT22;5600;50.864;6.102;2023-09-30T00:42:40;11.80;99.90
11093;DHT22;5600;50.864;6.102;2023-09-30T00:45:42;11.80;99.90
11093;DHT22;5600;50.864;6.102;2023-09-30T00:48:45;11.80;99.90
11093;DHT22;5600;50.864;6.102;2023-09-30T00:51:46;11.80;99.90
11093;DHT22;5600;50.864;6.102;2023-09-30T00:54:48;11.80;99.90
11093;DHT22;5600;50.864;6.102;2023-09-30T00:57:49;11.70;99.90
11093;DHT22;5600;50.864;6.102;2023-09-30T01:00:50;11.70;99.90
11093;DHT22;5600;50.864;6.102;2023-09-30T01:03:51;11.70;99.90
11093;DHT22;5600;50.864;6.102;2023-09-30T01:06:52;11.70;99.90
11093;DHT22;5600;50.864;6.102;2023-09-30T01:09:53;11.70;99.90
11093;DHT22;5600;50.864;6.102;2023-09-30T01:12:54;11.70;99.90
11093;DHT22;5600;50.864;6.102;2023-09-30T01:15:55;11.70;99.90
11093;DHT22;5600;50.864;6.102;2023-09-30T01:18:56;11.70;99.90
11093;DHT22;5600;50.864;6.102;2023-09-30T01:21:57;11.70;99.90
11093;DHT22;5600;50.864;6.102;2023-09-30T01:25:03;11.70;99.90
11093;DHT22;5600;50.864;6.102;2023-09-30T01:28:08;11.00;99.90
11093;DHT22;5600;50.864;6.102;2023-09-30T01:31:08;11.60;99.90
11093;DHT22;5600;50.864;6.102;2023-09-30T01:34:09;11.60;99.90
11093;DHT22;5600;50.864;6.102;2023-09-30T01:37:11;11.60;99.90
11093;DHT22;5600;50.864;6.102;2023-09-30T01:40:12;11.60;99.90
11093;DHT22;5600;50.864;6.102;2023-09-30T01:43:13;11.60;99.90
11093;DHT22;5600;50.864;6.102;2023-09-30T01:46:14;11.60;99.90
11093;DHT22;5600;50.864;6.102;2023-09-30T01:49:15;11.50;99.90
11093;DHT22;5600;50.864;6.102;2023-09-30T01:52:16;11.50;99.90
11093;DHT22;5600;50.864;6.102;2023-09-30T01:55:16;11.60;99.90
11093;DHT22;5600;50.864;6.102;2023-09-30T01:58:17;11.60;99.90
11093;DHT22;5600;50.864;6.102;2023-09-30T02:01:18;11.60;99.90
11093;DHT22;5600;50.864;6.102;2023-09-30T02:04:19;11.50;99.90
11093;DHT22;5600;50.864;6.102;2023-09-30T02:07:19;11.50;99.90
11093;DHT22;5600;50.864;6.102;2023-09-30T02:10:20;11.50;99.90
11093;DHT22;5600;50.864;6.102;2023-09-30T02:13:21;11.50;99.90
11093;DHT22;5600;50.864;6.102;2023-09-30T02:16:21;11.50;99.90
11093;DHT22;5600;50.864;6.102;2023-09-30T02:19:23;11.40;99.90
11093;DHT22;5600;50.864;6.102;2023-09-30T02:22:24;11.40;99.90
11093;DHT22;5600;50.864;6.102;2023-09-30T02:25:28;11.40;99.90
11093;DHT22;5600;50.864;6.102;2023-09-30T02:28:30;11.40;99.90
11093;DHT22;5600;50.864;6.102;2023-09-30T02:31:35;11.30;99.90
11093;DHT22;5600;50.864;6.102;2023-09-30T02:34:35;11.30;99.90
11093;DHT22;5600;50.864;6.102;2023-09-30T02:37:37;11.30;99.90
11093;DHT22;5600;50.864;6.102;2023-09-30T02:40:37;11.20;99.90
11093;DHT22;5600;50.864;6.102;2023-09-30T02:43:40;11.10;99.90
11093;DHT22;5600;50.864;6.102;2023-09-30T02:46:41;11.10;99.90
11093;DHT22;5600;50.864;6.102;2023-09-30T02:49:42;11.00;99.90
11093;DHT22;5600;50.864;6.102;2023-09-30T02:52:42;11.00;99.90
11093;DHT22;5600;50.864;6.102;2023-09-30T02:55:43;10.90;99.90
11093;DHT22;5600;50.864;6.102;2023-09-30T02:58:46;10.90;99.90
11093;DHT22;5600;50.864;6.102;2023-09-30T03:01:48;10.90;99.90
11093;DHT22;5600;50.864;6.102;2023-09-30T03:04:48;10.80;99.90
11093;DHT22;5600;50.864;6.102;2023-09-30T03:07:51;10.80;99.90
11093;DHT22;5600;50.864;6.102;2023-09-30T03:10:52;10.80;99.90
11093;DHT22;5600;50.864;6.102;2023-09-30T03:13:53;10.70;99.90
11093;DHT22;5600;50.864;6.102;2023-09-30T03:16:55;10.70;99.90
11093;DHT22;5600;50.864;6.102;2023-09-30T03:19:56;10.70;99.90
11093;DHT22;5600;50.864;6.102;2023-09-30T03:22:57;10.70;99.90
11093;DHT22;5600;50.864;6.102;2023-09-30T03:26:00;10.60;99.90
11093;DHT22;5600;50.864;6.102;2023-09-30T03:29:01;10.60;99.90
11093;DHT22;5600;50.864;6.102;2023-09-30T03:32:02;10.50;99.90
11093;DHT22;5600;50.864;6.102;2023-09-30T03:35:06;10.40;99.90
11093;DHT22;5600;50.864;6.102;2023-09-30T03:38:07;10.30;99.90
11093;DHT22;5600;50.864;6.102;2023-09-30T03:41:10;10.30;99.90
11093;DHT22;5600;50.864;6.102;2023-09-30T03:44:13;10.30;99.90
11093;DHT22;5600;50.864;6.102;2023-09-30T03:47:18;10.30;99.90
11093;DHT22;5600;50.864;6.102;2023-09-30T03:50:19;10.30;99.90
11093;DHT22;5600;50.864;6.102;2023-09-30T03:53:20;10.30;99.90
11093;DHT22;5600;50.864;6.102;2023-09-30T03:56:21;10.40;99.90
11093;DHT22;5600;50.864;6.102;2023-09-30T03:59:23;10.40;99.90
11093;DHT22;5600;50.864;6.102;2023-09-30T04:02:23;10.30;99.90
11093;DHT22;5600;50.864;6.102;2023-09-30T04:05:25;10.30;99.90
11093;DHT22;5600;50.864;6.102;2023-09-30T04:08:29;10.30;99.90
11093;DHT22;5600;50.864;6.102;2023-09-30T04:11:30;10.30;99.90
11093;DHT22;5600;50.864;6.102;2023-09-30T04:14:30;10.20;99.90
11093;DHT22;5600;50.864;6.102;2023-09-30T04:17:31;10.20;99.90
11093;DHT22;5600;50.864;6.102;2023-09-30T04:20:33;10.20;99.90
11093;DHT22;5600;50.864;6.102;2023-09-30T04:23:33;10.20;99.90
11093;DHT22;5600;50.864;6.102;2023-09-30T04:26:37;10.20;99.90
11093;DHT22;5600;50.864;6.102;2023-09-30T04:29:37;10.10;99.90
11093;DHT22;5600;50.864;6.102;2023-09-30T04:32:39;10.10;99.90
11093;DHT22;5600;50.864;6.102;2023-09-30T04:35:40;10.10;99.90
11093;DHT22;5600;50.864;6.102;2023-09-30T04:38:41;10.20;99.90
11093;DHT22;5600;50.864;6.102;2023-09-30T04:41:42;10.20;99.90
11093;DHT22;5600;50.864;6.102;2023-09-30T04:44:42;10.10;99.90
11093;DHT22;5600;50.864;6.102;2023-09-30T04:47:44;10.10;99.90
11093;DHT22;5600;50.864;6.102;2023-09-30T04:50:45;10.10;99.90
11093;DHT22;5600;50.864;6.102;2023-09-30T04:53:46;10.10;99.90
11093;DHT22;5600;50.864;6.102;2023-09-30T04:56:47;10.00;99.90
11093;DHT22;5600;50.864;6.102;2023-09-30T04:59:47;10.00;99.90
11093;DHT22;5600;50.864;6.102;2023-09-30T05:02:48;10.00;99.90
11093;DHT22;5600;50.864;6.102;2023-09-30T05:05:49;10.00;99.90
11093;DHT22;5600;50.864;6.102;2023-09-30T05:08:49;10.00;99.90
11093;DHT22;5600;50.864;6.102;2023-09-30T05:11:50;10.00;99.90
11093;DHT22;5600;50.864;6.102;2023-09-30T05:14:51;10.00;99.90
11093;DHT22;5600;50.864;6.102;2023-09-30T05:17:52;10.00;99.90
11093;DHT22;5600;50.864;6.102;2023-09-30T05:20:53;10.00;99.90
11093;DHT22;5600;50.864;6.102;2023-09-30T05:23:54;10.00;99.90
11093;DHT22;5600;50.864;6.102;2023-09-30T05:26:55;10.00;99.90
11093;DHT22;5600;50.864;6.102;2023-09-30T05:29:55;10.00;99.90
11093;DHT22;5600;50.864;6.102;2023-09-30T05:32:56;9.90;99.90
11093;DHT22;5600;50.864;6.102;2023-09-30T05:35:57;9.90;99.90
11093;DHT22;5600;50.864;6.102;2023-09-30T05:38:57;9.90;99.90
11093;DHT22;5600;50.864;6.102;2023-09-30T05:41:58;9.80;99.90
11093;DHT22;5600;50.864;6.102;2023-09-30T05:44:59;9.80;99.90
11093;DHT22;5600;50.864;6.102;2023-09-30T05:48:02;9.70;99.90
11093;DHT22;5600;50.864;6.102;2023-09-30T05:51:05;9.70;99.90
11093;DHT22;5600;50.864;6.102;2023-09-30T05:54:07;9.70;99.90
11093;DHT22;5600;50.864;6.102;2023-09-30T05:57:12;9.60;99.90
11093;DHT22;5600;50.864;6.102;2023-09-30T06:00:14;9.70;99.90
11093;DHT22;5600;50.864;6.102;2023-09-30T06:03:20;9.70;99.90
11093;DHT22;5600;50.864;6.102;2023-09-30T06:06:24;9.70;99.90
11093;DHT22;5600;50.864;6.102;2023-09-30T06:09:26;9.70;99.90
11093;DHT22;5600;50.864;6.102;2023-09-30T06:12:27;9.70;99.90
11093;DHT22;5600;50.864;6.102;2023-09-30T06:15:28;9.70;99.90
11093;DHT22;5600;50.864;6.102;2023-09-30T06:18:28;9.60;99.90
11093;DHT22;5600;50.864;6.102;2023-09-30T06:21:29;9.60;99.90
11093;DHT22;5600;50.864;6.102;2023-09-30T06:24:30;9.70;99.90
11093;DHT22;5600;50.864;6.102;2023-09-30T06:27:31;9.70;99.90
11093;DHT22;5600;50.864;6.102;2023-09-30T06:30:31;9.80;99.90
11093;DHT22;5600;50.864;6.102;2023-09-30T06:33:38;9.80;99.90
11093;DHT22;5600;50.864;6.102;2023-09-30T06:36:42;11.30;99.90
11093;DHT22;5600;50.864;6.102;2023-09-30T06:39:43;10.10;99.90
11093;DHT22;5600;50.864;6.102;2023-09-30T06:42:43;10.10;99.90
11093;DHT22;5600;50.864;6.102;2023-09-30T06:45:45;10.20;99.90
11093;DHT22;5600;50.864;6.102;2023-09-30T06:48:47;10.20;99.90
11093;DHT22;5600;50.864;6.102;2023-09-30T06:51:47;10.30;99.90
11093;DHT22;5600;50.864;6.102;2023-09-30T06:54:48;10.40;99.90
11093;DHT22;5600;50.864;6.102;2023-09-30T06:57:49;10.50;99.90
11093;DHT22;5600;50.864;6.102;2023-09-30T07:00:50;10.60;99.90
11093;DHT22;5600;50.864;6.102;2023-09-30T07:03:51;10.80;99.90
11093;DHT22;5600;50.864;6.102;2023-09-30T07:06:55;10.90;99.90
11093;DHT22;5600;50.864;6.102;2023-09-30T07:09:56;11.00;99.90
11093;DHT22;5600;50.864;6.102;2023-09-30T07:12:57;11.20;99.90
11093;DHT22;5600;50.864;6.102;2023-09-30T07:15:57;11.30;99.90
11093;DHT22;5600;50.864;6.102;2023-09-30T07:18:58;11.50;99.90
11093;DHT22;5600;50.864;6.102;2023-09-30T07:21:59;11.70;99.90
11093;DHT22;5600;50.864;6.102;2023-09-30T07:25:00;11.90;99.90
11093;DHT22;5600;50.864;6.102;2023-09-30T07:28:01;12.10;99.90
11093;DHT22;5600;50.864;6.102;2023-09-30T07:31:02;12.40;99.90
11093;DHT22;5600;50.864;6.102;2023-09-30T07:34:03;12.60;99.90
11093;DHT22;5600;50.864;6.102;2023-09-30T07:37:04;13.00;99.90
11093;DHT22;5600;50.864;6.102;2023-09-30T07:40:05;13.40;99.90
11093;DHT22;5600;50.864;6.102;2023-09-30T07:43:07;14.00;99.90
11093;DHT22;5600;50.864;6.102;2023-09-30T07:46:07;14.70;99.90
11093;DHT22;5600;50.864;6.102;2023-09-30T07:49:10;15.40;99.90
11093;DHT22;5600;50.864;6.102;2023-09-30T07:52:10;16.10;99.90
11093;DHT22;5600;50.864;6.102;2023-09-30T07:55:11;16.80;99.90
11093;DHT22;5600;50.864;6.102;2023-09-30T07:58:12;17.40;99.90
11093;DHT22;5600;50.864;6.102;2023-09-30T08:01:13;17.90;99.90
11093;DHT22;5600;50.864;6.102;2023-09-30T08:04:13;18.50;99.90
11093;DHT22;5600;50.864;6.102;2023-09-30T08:07:14;19.10;99.90
11093;DHT22;5600;50.864;6.102;2023-09-30T08:10:15;19.60;99.90
11093;DHT22;5600;50.864;6.102;2023-09-30T08:13:17;20.10;99.90
11093;DHT22;5600;50.864;6.102;2023-09-30T08:16:18;20.50;99.90
11093;DHT22;5600;50.864;6.102;2023-09-30T08:19:19;20.80;99.90
11093;DHT22;5600;50.864;6.102;2023-09-30T08:22:21;21.10;99.90
11093;DHT22;5600;50.864;6.102;2023-09-30T08:25:26;21.20;99.90
11093;DHT22;5600;50.864;6.102;2023-09-30T08:28:27;21.40;99.90
11093;DHT22;5600;50.864;6.102;2023-09-30T08:31:28;21.40;99.90
11093;DHT22;5600;50.864;6.102;2023-09-30T08:34:29;21.50;99.90
11093;DHT22;5600;50.864;6.102;2023-09-30T08:37:30;21.40;99.90
11093;DHT22;5600;50.864;6.102;2023-09-30T08:40:31;21.40;99.90
11093;DHT22;5600;50.864;6.102;2023-09-30T08:43:37;21.30;99.90
11093;DHT22;5600;50.864;6.102;2023-09-30T08:46:39;21.20;99.90
11093;DHT22;5600;50.864;6.102;2023-09-30T08:49:42;20.90;99.90
11093;DHT22;5600;50.864;6.102;2023-09-30T08:52:45;20.90;99.90
11093;DHT22;5600;50.864;6.102;2023-09-30T08:55:46;20.90;99.90
11093;DHT22;5600;50.864;6.102;2023-09-30T08:58:48;20.90;99.90
11093;DHT22;5600;50.864;6.102;2023-09-30T09:01:48;20.90;99.90
11093;DHT22;5600;50.864;6.102;2023-09-30T09:04:49;20.90;99.90
11093;DHT22;5600;50.864;6.102;2023-09-30T09:07:50;20.90;99.90
11093;DHT22;5600;50.864;6.102;2023-09-30T09:10:58;20.80;99.90
11093;DHT22;5600;50.864;6.102;2023-09-30T09:13:59;20.70;99.90
11093;DHT22;5600;50.864;6.102;2023-09-30T09:17:01;20.60;99.90
11093;DHT22;5600;50.864;6.102;2023-09-30T09:20:02;20.50;99.90
11093;DHT22;5600;50.864;6.102;2023-09-30T09:23:06;20.50;99.90
11093;DHT22;5600;50.864;6.102;2023-09-30T09:26:08;20.40;99.90
11093;DHT22;5600;50.864;6.102;2023-09-30T09:29:09;20.30;99.90
11093;DHT22;5600;50.864;6.102;2023-09-30T09:32:15;20.30;99.90
11093;DHT22;5600;50.864;6.102;2023-09-30T09:35:20;20.50;99.90
11093;DHT22;5600;50.864;6.102;2023-09-30T09:38:21;20.30;99.90
11093;DHT22;5600;50.864;6.102;2023-09-30T09:41:22;20.20;99.90
11093;DHT22;5600;50.864;6.102;2023-09-30T09:44:24;20.30;99.90
11093;DHT22;5600;50.864;6.102;2023-09-30T09:47:29;20.30;99.90
11093;DHT22;5600;50.864;6.102;2023-09-30T09:50:32;20.30;99.90
11093;DHT22;5600;50.864;6.102;2023-09-30T09:53:36;20.30;99.90
11093;DHT22;5600;50.864;6.102;2023-09-30T09:56:40;20.20;99.90
11093;DHT22;5600;50.864;6.102;2023-09-30T09:59:43;20.00;99.90
11093;DHT22;5600;50.864;6.102;2023-09-30T10:02:46;20.00;99.90
11093;DHT22;5600;50.864;6.102;2023-09-30T10:05:47;20.00;99.90
11093;DHT22;5600;50.864;6.102;2023-09-30T10:08:49;20.00;99.90
11093;DHT22;5600;50.864;6.102;2023-09-30T10:11:58;20.00;99.90
11093;DHT22;5600;50.864;6.102;2023-09-30T10:14:59;20.10;99.90
11093;DHT22;5600;50.864;6.102;2023-09-30T10:18:11;20.00;99.90
11093;DHT22;5600;50.864;6.102;2023-09-30T10:21:12;20.00;99.90
11093;DHT22;5600;50.864;6.102;2023-09-30T10:30:25;20.00;99.90
11093;DHT22;5600;50.864;6.102;2023-09-30T10:33:26;20.10;99.90
11093;DHT22;5600;50.864;6.102;2023-09-30T10:39:55;20.20;99.90
11093;DHT22;5600;50.864;6.102;2023-09-30T10:42:57;20.40;99.90
11093;DHT22;5600;50.864;6.102;2023-09-30T10:45:58;20.40;99.90
11093;DHT22;5600;50.864;6.102;2023-09-30T10:49:15;20.40;99.90
11093;DHT22;5600;50.864;6.102;2023-09-30T10:52:24;20.30;99.90
11093;DHT22;5600;50.864;6.102;2023-09-30T10:55:26;20.10;99.90
11093;DHT22;5600;50.864;6.102;2023-09-30T10:58:48;20.00;99.90
11093;DHT22;5600;50.864;6.102;2023-09-30T11:01:50;19.80;99.90
11093;DHT22;5600;50.864;6.102;2023-09-30T11:04:52;20.00;99.90
11093;DHT22;5600;50.864;6.102;2023-09-30T11:07:53;20.10;99.90
11093;DHT22;5600;50.864;6.102;2023-09-30T11:10:55;20.50;99.90
11093;DHT22;5600;50.864;6.102;2023-09-30T11:13:57;20.70;99.90
11093;DHT22;5600;50.864;6.102;2023-09-30T11:16:58;20.90;99.90
11093;DHT22;5600;50.864;6.102;2023-09-30T11:20:00;21.00;99.90
11093;DHT22;5600;50.864;6.102;2023-09-30T11:23:01;21.10;99.90
11093;DHT22;5600;50.864;6.102;2023-09-30T11:26:02;21.00;99.90
11093;DHT22;5600;50.864;6.102;2023-09-30T11:29:09;21.20;99.90
11093;DHT22;5600;50.864;6.102;2023-09-30T11:32:26;21.30;99.90
11093;DHT22;5600;50.864;6.102;2023-09-30T11:35:31;21.40;99.90
11093;DHT22;5600;50.864;6.102;2023-09-30T11:38:34;21.50;99.90
11093;DHT22;5600;50.864;6.102;2023-09-30T11:41:36;21.50;99.90
11093;DHT22;5600;50.864;6.102;2023-09-30T11:44:45;21.40;99.90
11093;DHT22;5600;50.864;6.102;2023-09-30T11:47:50;21.50;99.90
11093;DHT22;5600;50.864;6.102;2023-09-30T11:50:52;21.50;99.90
11093;DHT22;5600;50.864;6.102;2023-09-30T11:53:54;21.50;99.90
11093;DHT22;5600;50.864;6.102;2023-09-30T11:56:55;21.40;99.90
11093;DHT22;5600;50.864;6.102;2023-09-30T11:59:56;21.10;99.90
11093;DHT22;5600;50.864;6.102;2023-09-30T12:02:56;21.10;99.90
11093;DHT22;5600;50.864;6.102;2023-09-30T12:05:58;20.90;99.90
11093;DHT22;5600;50.864;6.102;2023-09-30T12:09:01;20.80;99.90
11093;DHT22;5600;50.864;6.102;2023-09-30T12:12:03;20.80;99.90
11093;DHT22;5600;50.864;6.102;2023-09-30T12:15:05;20.60;99.90
11093;DHT22;5600;50.864;6.102;2023-09-30T12:18:05;20.40;99.90
11093;DHT22;5600;50.864;6.102;2023-09-30T12:21:13;20.20;99.90
11093;DHT22;5600;50.864;6.102;2023-09-30T12:24:15;20.20;99.90
11093;DHT22;5600;50.864;6.102;2023-09-30T12:27:17;20.20;99.90
11093;DHT22;5600;50.864;6.102;2023-09-30T12:30:18;20.30;99.90
11093;DHT22;5600;50.864;6.102;2023-09-30T12:33:20;20.30;99.90
11093;DHT22;5600;50.864;6.102;2023-09-30T12:36:21;20.40;99.90
11093;DHT22;5600;50.864;6.102;2023-09-30T12:39:22;20.40;99.90
11093;DHT22;5600;50.864;6.102;2023-09-30T12:42:24;20.50;99.90
11093;DHT22;5600;50.864;6.102;2023-09-30T12:45:25;20.60;99.90
11093;DHT22;5600;50.864;6.102;2023-09-30T12:48:25;20.60;99.90
11093;DHT22;5600;50.864;6.102;2023-09-30T12:51:26;20.60;99.90
11093;DHT22;5600;50.864;6.102;2023-09-30T12:54:27;20.50;99.90
11093;DHT22;5600;50.864;6.102;2023-09-30T12:57:28;20.50;99.90
11093;DHT22;5600;50.864;6.102;2023-09-30T13:00:29;20.50;99.90
11093;DHT22;5600;50.864;6.102;2023-09-30T13:03:31;20.70;99.90
11093;DHT22;5600;50.864;6.102;2023-09-30T13:06:32;20.70;99.90
11093;DHT22;5600;50.864;6.102;2023-09-30T13:09:36;20.70;99.90
11093;DHT22;5600;50.864;6.102;2023-09-30T13:12:37;20.70;99.90
11093;DHT22;5600;50.864;6.102;2023-09-30T13:15:38;20.70;99.90
11093;DHT22;5600;50.864;6.102;2023-09-30T13:18:39;20.80;99.90
11093;DHT22;5600;50.864;6.102;2023-09-30T13:21:40;20.90;99.90
11093;DHT22;5600;50.864;6.102;2023-09-30T13:24:42;21.00;99.90
11093;DHT22;5600;50.864;6.102;2023-09-30T13:27:43;20.90;99.90
11093;DHT22;5600;50.864;6.102;2023-09-30T13:30:44;20.90;99.90
11093;DHT22;5600;50.864;6.102;2023-09-30T13:33:46;21.00;99.90
11093;DHT22;5600;50.864;6.102;2023-09-30T13:36:48;21.00;99.90
11093;DHT22;5600;50.864;6.102;2023-09-30T13:39:49;20.90;99.90
11093;DHT22;5600;50.864;6.102;2023-09-30T13:42:50;20.90;99.90
11093;DHT22;5600;50.864;6.102;2023-09-30T13:45:51;20.90;99.90
11093;DHT22;5600;50.864;6.102;2023-09-30T13:48:52;20.90;99.90
11093;DHT22;5600;50.864;6.102;2023-09-30T13:51:53;20.90;99.90
11093;DHT22;5600;50.864;6.102;2023-09-30T13:54:54;20.80;99.90
11093;DHT22;5600;50.864;6.102;2023-09-30T13:57:56;20.90;99.90
11093;DHT22;5600;50.864;6.102;2023-09-30T14:00:57;20.70;99.90
11093;DHT22;5600;50.864;6.102;2023-09-30T14:03:58;20.70;99.90
11093;DHT22;5600;50.864;6.102;2023-09-30T14:06:59;20.90;99.90
11093;DHT22;5600;50.864;6.102;2023-09-30T14:10:03;20.90;99.90
11093;DHT22;5600;50.864;6.102;2023-09-30T14:13:04;21.00;99.90
11093;DHT22;5600;50.864;6.102;2023-09-30T14:16:06;21.10;99.90
11093;DHT22;5600;50.864;6.102;2023-09-30T14:19:07;21.10;99.90
11093;DHT22;5600;50.864;6.102;2023-09-30T14:22:08;21.10;99.90
11093;DHT22;5600;50.864;6.102;2023-09-30T14:25:09;21.00;99.90
11093;DHT22;5600;50.864;6.102;2023-09-30T14:28:10;20.90;99.90
11093;DHT22;5600;50.864;6.102;2023-09-30T14:31:11;20.60;99.90
11093;DHT22;5600;50.864;6.102;2023-09-30T14:34:12;20.40;99.90
11093;DHT22;5600;50.864;6.102;2023-09-30T14:37:13;20.30;99.90
11093;DHT22;5600;50.864;6.102;2023-09-30T14:40:13;20.40;99.90
11093;DHT22;5600;50.864;6.102;2023-09-30T14:43:14;20.40;99.90
11093;DHT22;5600;50.864;6.102;2023-09-30T14:46:15;20.40;99.90
11093;DHT22;5600;50.864;6.102;2023-09-30T14:49:16;20.40;99.90
11093;DHT22;5600;50.864;6.102;2023-09-30T14:52:16;20.30;99.90
11093;DHT22;5600;50.864;6.102;2023-09-30T14:55:17;20.30;99.90
11093;DHT22;5600;50.864;6.102;2023-09-30T14:58:18;20.20;99.90
11093;DHT22;5600;50.864;6.102;2023-09-30T15:01:19;20.20;99.90
11093;DHT22;5600;50.864;6.102;2023-09-30T15:04:20;20.20;99.90
11093;DHT22;5600;50.864;6.102;2023-09-30T15:07:21;20.10;99.90
11093;DHT22;5600;50.864;6.102;2023-09-30T15:10:23;20.00;99.90
11093;DHT22;5600;50.864;6.102;2023-09-30T15:13:24;20.00;99.90
11093;DHT22;5600;50.864;6.102;2023-09-30T15:16:25;20.00;99.90
11093;DHT22;5600;50.864;6.102;2023-09-30T15:19:26;20.00;99.90
11093;DHT22;5600;50.864;6.102;2023-09-30T15:22:27;20.10;99.90
11093;DHT22;5600;50.864;6.102;2023-09-30T15:25:28;20.10;99.90
11093;DHT22;5600;50.864;6.102;2023-09-30T15:28:29;20.10;99.90
11093;DHT22;5600;50.864;6.102;2023-09-30T15:31:30;20.10;99.90
11093;DHT22;5600;50.864;6.102;2023-09-30T15:34:31;20.10;99.90
11093;DHT22;5600;50.864;6.102;2023-09-30T15:37:32;20.10;99.90
11093;DHT22;5600;50.864;6.102;2023-09-30T15:40:53;20.10;99.90
11093;DHT22;5600;50.864;6.102;2023-09-30T15:43:58;19.90;99.90
11093;DHT22;5600;50.864;6.102;2023-09-30T15:46:59;19.80;99.90
11093;DHT22;5600;50.864;6.102;2023-09-30T15:50:00;19.80;99.90
11093;DHT22;5600;50.864;6.102;2023-09-30T15:53:01;19.70;99.90
11093;DHT22;5600;50.864;6.102;2023-09-30T15:56:05;19.60;99.90
11093;DHT22;5600;50.864;6.102;2023-09-30T15:59:06;19.50;99.90
11093;DHT22;5600;50.864;6.102;2023-09-30T16:02:07;19.40;99.90
11093;DHT22;5600;50.864;6.102;2023-09-30T16:05:08;19.30;99.90
11093;DHT22;5600;50.864;6.102;2023-09-30T16:08:10;19.30;99.90
11093;DHT22;5600;50.864;6.102;2023-09-30T16:11:11;19.30;99.90
11093;DHT22;5600;50.864;6.102;2023-09-30T16:14:12;19.40;99.90
11093;DHT22;5600;50.864;6.102;2023-09-30T16:17:14;19.30;99.90
11093;DHT22;5600;50.864;6.102;2023-09-30T16:20:14;19.30;99.90
11093;DHT22;5600;50.864;6.102;2023-09-30T16:23:15;19.10;99.90
11093;DHT22;5600;50.864;6.102;2023-09-30T16:26:16;19.20;99.90
11093;DHT22;5600;50.864;6.102;2023-09-30T16:29:17;19.10;99.90
11093;DHT22;5600;50.864;6.102;2023-09-30T16:32:18;19.00;99.90
11093;DHT22;5600;50.864;6.102;2023-09-30T16:35:19;18.20;99.90
11093;DHT22;5600;50.864;6.102;2023-09-30T16:38:21;18.80;99.90
11093;DHT22;5600;50.864;6.102;2023-09-30T16:41:22;18.60;99.90
11093;DHT22;5600;50.864;6.102;2023-09-30T16:44:23;18.40;99.90
11093;DHT22;5600;50.864;6.102;2023-09-30T16:47:26;18.20;99.90
11093;DHT22;5600;50.864;6.102;2023-09-30T16:50:27;18.00;99.90
11093;DHT22;5600;50.864;6.102;2023-09-30T16:53:27;17.80;99.90
11093;DHT22;5600;50.864;6.102;2023-09-30T16:56:29;17.50;99.90
11093;DHT22;5600;50.864;6.102;2023-09-30T16:59:30;17.30;99.90
11093;DHT22;5600;50.864;6.102;2023-09-30T17:02:31;17.20;99.90
11093;DHT22;5600;50.864;6.102;2023-09-30T17:05:35;17.00;99.90
11093;DHT22;5600;50.864;6.102;2023-09-30T17:08:36;16.80;99.90
11093;DHT22;5600;50.864;6.102;2023-09-30T17:11:37;16.60;99.90
11093;DHT22;5600;50.864;6.102;2023-09-30T17:14:38;16.40;99.90
11093;DHT22;5600;50.864;6.102;2023-09-30T17:17:40;16.20;99.90
11093;DHT22;5600;50.864;6.102;2023-09-30T17:20:44;16.10;99.90
11093;DHT22;5600;50.864;6.102;2023-09-30T17:23:45;16.00;99.90
11093;DHT22;5600;50.864;6.102;2023-09-30T17:26:46;15.80;99.90
11093;DHT22;5600;50.864;6.102;2023-09-30T17:29:47;15.60;99.90
11093;DHT22;5600;50.864;6.102;2023-09-30T17:32:49;15.60;99.90
11093;DHT22;5600;50.864;6.102;2023-09-30T17:35:50;15.40;99.90
11093;DHT22;5600;50.864;6.102;2023-09-30T17:38:52;14.50;99.90
11093;DHT22;5600;50.864;6.102;2023-09-30T17:41:53;15.10;99.90
11093;DHT22;5600;50.864;6.102;2023-09-30T17:44:53;15.00;99.90
11093;DHT22;5600;50.864;6.102;2023-09-30T17:47:55;14.90;99.90
11093;DHT22;5600;50.864;6.102;2023-09-30T17:50:56;14.70;99.90
11093;DHT22;5600;50.864;6.102;2023-09-30T17:53:57;14.60;99.90
11093;DHT22;5600;50.864;6.102;2023-09-30T17:56:58;14.50;99.90
11093;DHT22;5600;50.864;6.102;2023-09-30T17:59:59;14.40;99.90
11093;DHT22;5600;50.864;6.102;2023-09-30T18:03:00;14.40;99.90
11093;DHT22;5600;50.864;6.102;2023-09-30T18:06:08;14.30;99.90
11093;DHT22;5600;50.864;6.102;2023-09-30T18:09:13;14.20;99.90
11093;DHT22;5600;50.864;6.102;2023-09-30T18:12:14;14.20;99.90
11093;DHT22;5600;50.864;6.102;2023-09-30T18:15:15;14.20;99.90
11093;DHT22;5600;50.864;6.102;2023-09-30T18:18:17;14.00;99.90
11093;DHT22;5600;50.864;6.102;2023-09-30T18:21:18;14.00;99.90
11093;DHT22;5600;50.864;6.102;2023-09-30T18:24:19;14.00;99.90
11093;DHT22;5600;50.864;6.102;2023-09-30T18:27:20;13.80;99.90
11093;DHT22;5600;50.864;6.102;2023-09-30T18:30:21;13.80;99.90
11093;DHT22;5600;50.864;6.102;2023-09-30T18:33:22;13.70;99.90
11093;DHT22;5600;50.864;6.102;2023-09-30T18:36:22;13.60;99.90
11093;DHT22;5600;50.864;6.102;2023-09-30T18:39:23;13.60;99.90
11093;DHT22;5600;50.864;6.102;2023-09-30T18:42:24;13.50;99.90
11093;DHT22;5600;50.864;6.102;2023-09-30T18:45:25;13.40;99.90
11093;DHT22;5600;50.864;6.102;2023-09-30T18:48:25;13.40;99.90
11093;DHT22;5600;50.864;6.102;2023-09-30T18:51:26;13.30;99.90
11093;DHT22;5600;50.864;6.102;2023-09-30T18:54:28;13.30;99.90
11093;DHT22;5600;50.864;6.102;2023-09-30T18:57:29;13.20;99.90
11093;DHT22;5600;50.864;6.102;2023-09-30T19:00:30;13.10;99.90
11093;DHT22;5600;50.864;6.102;2023-09-30T19:03:32;13.10;99.90
11093;DHT22;5600;50.864;6.102;2023-09-30T19:06:33;13.00;99.90
11093;DHT22;5600;50.864;6.102;2023-09-30T19:09:33;13.00;99.90
11093;DHT22;5600;50.864;6.102;2023-09-30T19:12:34;12.90;99.90
11093;DHT22;5600;50.864;6.102;2023-09-30T19:15:35;12.90;99.90
11093;DHT22;5600;50.864;6.102;2023-09-30T19:18:35;12.80;99.90
11093;DHT22;5600;50.864;6.102;2023-09-30T19:21:36;12.70;99.90
11093;DHT22;5600;50.864;6.102;2023-09-30T19:24:37;12.60;99.90
11093;DHT22;5600;50.864;6.102;2023-09-30T19:27:38;12.60;99.90
11093;DHT22;5600;50.864;6.102;2023-09-30T19:30:38;12.60;99.90
11093;DHT22;5600;50.864;6.102;2023-09-30T19:33:43;12.60;99.90
11093;DHT22;5600;50.864;6.102;2023-09-30T19:36:44;12.50;99.90